Time;durP1;ratioP1;P1;durP2;ratioP2;P2;SDS_P1;SDS_P2;PMS_P1;PMS_P2;Temp;Humidity;BMP_temperature;BMP_pressure;BME280_temperature;BME280_humidity;BME280_pressure;Samples;Min_cycle;Max_cycle;Signal;HPM_P1;HPM_P2
2023/10/20 00:00:37;;;;;;;;;;;;;;;17.92;64.12;97691.97;4213452;28;19924;-58
2023/10/20 00:02:39;;;;;;;;;;;;;;;17.91;63.80;97685.84;4213688;28;20303;-59
2023/10/20 00:04:40;;;;;;;;;;;;;;;17.90;63.96;97681.53;4213644;28;20308;-58
2023/10/20 00:06:42;;;;;;;;;;;;;;;17.89;63.83;97675.38;4213651;28;20311;-58
2023/10/20 00:08:44;;;;;;;;;;;;;;;17.89;64.08;97672.72;4213523;28;20309;-59
2023/10/20 00:10:46;;;;;;;;;;;;;;;17.88;64.07;97671.03;4213646;28;19970;-58
2023/10/20 00:12:47;;;;;;;;;;;;;;;17.88;64.01;97667.56;4213581;28;20005;-58
2023/10/20 00:14:49;;;;;;;;;;;;;;;17.87;63.78;97661.44;4213389;28;19993;-59
2023/10/20 00:16:51;;;;;;;;;;;;;;;17.87;64.20;97658.78;4213585;28;19924;-58
2023/10/20 00:18:52;;;;;;;;;;;;;;;17.86;63.93;97653.63;4213587;28;20019;-59
2023/10/20 00:20:54;;;;;;;;;;;;;;;17.86;64.25;97651.81;4213357;28;20436;-59
2023/10/20 00:22:55;;;;;;;;;;;;;;;17.85;64.00;97644.84;4213506;28;19931;-59
2023/10/20 00:24:58;;;;;;;;;;;;;;;17.85;64.16;97638.66;4213318;28;19970;-59
2023/10/20 00:26:59;;;;;;;;;;;;;;;17.84;64.14;97627.22;4213546;28;19924;-59
2023/10/20 00:29:01;;;;;;;;;;;;;;;17.85;63.93;97620.06;4212899;28;19930;-59
2023/10/20 00:31:03;;;;;;;;;;;;;;;17.84;64.03;97616.59;4213406;28;19924;-59
2023/10/20 00:33:05;;;;;;;;;;;;;;;17.85;64.15;97622.72;4213309;28;19928;-59
2023/10/20 00:35:09;;;;;;;;;;;;;;;17.84;64.04;97618.44;4213457;28;20338;-59
2023/10/20 00:37:10;;;;;;;;;;;;;;;17.83;63.85;97620.25;4213261;28;20018;-59
2023/10/20 00:39:12;;;;;;;;;;;;;;;17.83;63.90;97628.22;4213900;28;20321;-59
2023/10/20 00:41:14;;;;;;;;;;;;;;;17.82;63.89;97623.91;4216517;28;19928;-59
2023/10/20 00:43:15;;;;;;;;;;;;;;;17.82;64.16;97629.22;4216136;28;19928;-59
2023/10/20 00:45:17;;;;;;;;;;;;;;;17.83;63.76;97632.72;4216173;28;19977;-58
2023/10/20 00:47:20;;;;;;;;;;;;;;;17.82;64.09;97637.19;4198253;28;19932;-59
2023/10/20 00:49:21;;;;;;;;;;;;;;;17.81;64.19;97635.56;4216544;28;20274;-59
2023/10/20 00:51:24;;;;;;;;;;;;;;;17.81;64.30;97637.38;4216402;28;19934;-59
2023/10/20 00:53:27;;;;;;;;;;;;;;;17.81;64.14;97640.88;4216490;28;19978;-58
2023/10/20 00:55:30;;;;;;;;;;;;;;;17.79;64.39;97650.00;4198482;28;19934;-59
2023/10/20 00:57:32;;;;;;;;;;;;;;;17.79;64.05;97652.69;4215856;28;20444;-59
2023/10/20 00:59:33;;;;;;;;;;;;;;;17.79;64.29;97652.69;4216314;28;19924;-59
2023/10/20 01:01:35;;;;;;;;;;;;;;;17.77;64.28;97636.91;4216373;28;19928;-59
2023/10/20 01:03:37;;;;;;;;;;;;;;;17.77;64.28;97636.91;4216360;28;19939;-58
2023/10/20 01:05:39;;;;;;;;;;;;;;;17.78;64.24;97637.75;4216046;28;19924;-58
2023/10/20 01:07:42;;;;;;;;;;;;;;;17.76;64.23;97635.25;4198030;28;19975;-58
2023/10/20 01:09:43;;;;;;;;;;;;;;;17.76;64.48;97619.31;4216133;28;19923;-58
2023/10/20 01:11:45;;;;;;;;;;;;;;;17.74;64.25;97618.69;4215934;28;19928;-58
2023/10/20 01:13:46;;;;;;;;;;;;;;;17.75;64.10;97603.53;4216123;28;20403;-58
2023/10/20 01:15:49;;;;;;;;;;;;;;;17.74;64.13;97597.41;4216043;28;19971;-58
2023/10/20 01:17:50;;;;;;;;;;;;;;;17.73;64.30;97585.94;4215737;28;19924;-57
2023/10/20 01:19:52;;;;;;;;;;;;;;;17.73;64.04;97579.81;4215903;28;20086;-58
2023/10/20 01:21:53;;;;;;;;;;;;;;;17.73;64.46;97593.09;4215916;28;20011;-58
2023/10/20 01:23:55;;;;;;;;;;;;;;;17.72;64.51;97592.25;4215928;28;19928;-58
2023/10/20 01:25:56;;;;;;;;;;;;;;;17.71;64.36;97595.91;4197542;28;20272;-58
2023/10/20 01:27:58;;;;;;;;;;;;;;;17.71;64.39;97595.09;4215852;28;19924;-57
2023/10/20 01:30:00;;;;;;;;;;;;;;;17.71;64.45;97595.09;4215639;28;20306;-57
2023/10/20 01:32:01;;;;;;;;;;;;;;;17.71;64.42;97597.75;4197589;28;20027;-58
2023/10/20 01:34:03;;;;;;;;;;;;;;;17.69;64.54;97595.28;4214560;28;19931;-58
2023/10/20 01:36:05;;;;;;;;;;;;;;;17.68;64.58;97575.00;4215852;28;19928;-58
2023/10/20 01:38:06;;;;;;;;;;;;;;;17.68;64.76;97561.72;4197633;28;19924;-58
2023/10/20 01:40:09;;;;;;;;;;;;;;;17.68;64.72;97564.38;4215719;28;19967;-58
2023/10/20 01:42:16;;;;;;;;;;;;;;;17.68;64.77;97552.91;4215158;28;19938;-58
2023/10/20 01:44:17;;;;;;;;;;;;;;;17.68;64.79;97556.41;4215543;28;19924;-57
2023/10/20 01:46:19;;;;;;;;;;;;;;;17.67;64.38;97544.13;4215284;28;19924;-58
2023/10/20 01:48:21;;;;;;;;;;;;;;;17.67;64.39;97543.31;4197176;28;19924;-57
2023/10/20 01:50:23;;;;;;;;;;;;;;;17.67;64.79;97538.00;4215448;28;20055;-58
2023/10/20 01:52:25;;;;;;;;;;;;;;;17.66;64.74;97536.34;4214968;28;19959;-57
2023/10/20 01:54:26;;;;;;;;;;;;;;;17.64;64.76;97530.38;4215331;28;19924;-58
2023/10/20 01:56:28;;;;;;;;;;;;;;;17.63;64.29;97524.25;4214903;28;19930;-57
2023/10/20 01:58:29;;;;;;;;;;;;;;;17.64;64.36;97525.06;4215334;28;19924;-57
2023/10/20 02:00:31;;;;;;;;;;;;;;;17.64;64.31;97525.88;4215324;28;19957;-57
2023/10/20 02:02:32;;;;;;;;;;;;;;;17.65;64.67;97526.72;4215256;28;19928;-57
2023/10/20 02:04:34;;;;;;;;;;;;;;;17.64;64.58;97517.91;4215321;28;19931;-57
2023/10/20 02:06:35;;;;;;;;;;;;;;;17.64;64.39;97515.22;4215140;28;20011;-57
2023/10/20 02:08:39;;;;;;;;;;;;;;;17.64;64.31;97509.09;4215227;28;19960;-57
2023/10/20 02:10:43;;;;;;;;;;;;;;;17.64;64.42;97506.44;4214972;28;19924;-57
2023/10/20 02:12:44;;;;;;;;;;;;;;;17.64;64.73;97495.81;4215134;28;19924;-57
2023/10/20 02:14:46;;;;;;;;;;;;;;;17.63;64.34;97486.19;4215068;28;19928;-57
2023/10/20 02:16:47;;;;;;;;;;;;;;;17.61;64.44;97483.72;4214965;28;19924;-57
2023/10/20 02:18:54;;;;;;;;;;;;;;;17.61;64.43;97475.75;4214717;28;20010;-57
2023/10/20 02:20:57;;;;;;;;;;;;;;;17.61;64.41;97477.59;4214946;28;19935;-58
2023/10/20 02:22:58;;;;;;;;;;;;;;;17.61;64.68;97466.97;4215033;28;20298;-58
2023/10/20 02:25:00;;;;;;;;;;;;;;;17.60;64.51;97466.13;4214567;28;19928;-59
2023/10/20 02:27:01;;;;;;;;;;;;;;;17.60;64.60;97460.00;4214828;28;19928;-59
2023/10/20 02:29:03;;;;;;;;;;;;;;;17.59;64.44;97461.00;4214990;28;19959;-59
2023/10/20 02:31:14;;;;;;;;;;;;;;;17.59;64.45;97451.19;4214953;28;20380;-59
2023/10/20 02:33:16;;;;;;;;;;;;;;;17.58;64.58;97438.91;4214852;28;20423;-60
2023/10/20 02:35:18;;;;;;;;;;;;;;;17.58;64.65;97427.44;4214766;28;20350;-57
2023/10/20 02:37:19;;;;;;;;;;;;;;;17.58;64.52;97432.75;4214636;28;20011;-59
2023/10/20 02:39:21;;;;;;;;;;;;;;;17.57;64.62;97434.63;4214338;28;19932;-59
2023/10/20 02:41:24;;;;;;;;;;;;;;;17.58;64.60;97446.06;4214747;28;19951;-59
2023/10/20 02:43:28;;;;;;;;;;;;;;;17.57;64.61;97450.56;4214475;28;19950;-59
2023/10/20 02:45:30;;;;;;;;;;;;;;;17.57;64.46;97447.91;4214708;28;19931;-56
2023/10/20 02:47:31;;;;;;;;;;;;;;;17.55;64.26;97445.41;4214394;28;20001;-59
2023/10/20 02:49:33;;;;;;;;;;;;;;;17.56;64.31;97448.91;4214504;28;20281;-59
2023/10/20 02:51:34;;;;;;;;;;;;;;;17.56;64.46;97449.72;4214634;28;19956;-59
2023/10/20 02:53:39;;;;;;;;;;;;;;;17.55;64.33;97447.25;4214182;28;20518;-59
2023/10/20 02:55:44;;;;;;;;;;;;;;;17.54;64.39;97442.94;4214435;28;20026;-58
2023/10/20 02:57:47;;;;;;;;;;;;;;;17.54;64.42;97445.59;4214362;28;19924;-59
2023/10/20 02:59:49;;;;;;;;;;;;;;;17.53;64.51;97447.44;4214375;28;19935;-59
2023/10/20 03:01:50;;;;;;;;;;;;;;;17.53;64.40;97436.81;4214518;28;19924;-58
2023/10/20 03:03:52;;;;;;;;;;;;;;;17.53;64.56;97449.25;4213591;28;19924;-59
2023/10/20 03:05:59;;;;;;;;;;;;;;;17.52;64.55;97429.84;4214375;28;19924;-59
2023/10/20 03:08:01;;;;;;;;;;;;;;;17.51;64.56;97420.22;4213955;28;19928;-58
2023/10/20 03:10:03;;;;;;;;;;;;;;;17.50;64.29;97429.19;4214388;28;19924;-59
2023/10/20 03:12:05;;;;;;;;;;;;;;;17.50;64.50;97421.22;4214233;28;20114;-58
2023/10/20 03:14:06;;;;;;;;;;;;;;;17.51;64.51;97420.22;4214323;28;19932;-58
2023/10/20 03:16:08;;;;;;;;;;;;;;;17.50;64.18;97421.22;4214039;28;19970;-58
2023/10/20 03:18:13;;;;;;;;;;;;;;;17.50;64.57;97415.91;4213942;28;19924;-59
2023/10/20 03:20:17;;;;;;;;;;;;;;;17.50;64.32;97415.09;4213859;28;19931;-59
2023/10/20 03:22:19;;;;;;;;;;;;;;;17.49;64.18;97411.56;4213724;28;19924;-59
2023/10/20 03:24:20;;;;;;;;;;;;;;;17.48;64.51;97420.56;4213912;28;19924;-59
2023/10/20 03:26:22;;;;;;;;;;;;;;;17.49;64.45;97408.91;4214112;28;19931;-59
2023/10/20 03:28:24;;;;;;;;;;;;;;;17.48;64.05;97398.47;4213951;28;19967;-59
2023/10/20 03:30:27;;;;;;;;;;;;;;;17.48;64.04;97393.97;4214115;28;19931;-59
2023/10/20 03:32:29;;;;;;;;;;;;;;;17.48;64.33;97391.31;4213943;28;20331;-59
2023/10/20 03:34:31;;;;;;;;;;;;;;;17.47;64.35;97383.53;4214192;28;19935;-59
2023/10/20 03:36:34;;;;;;;;;;;;;;;17.46;64.62;97377.41;4213558;28;19924;-59
2023/10/20 03:38:37;;;;;;;;;;;;;;;17.46;64.06;97380.06;4213825;28;20427;-59
2023/10/20 03:40:42;;;;;;;;;;;;;;;17.46;64.56;97372.09;4213511;28;19928;-59
2023/10/20 03:42:43;;;;;;;;;;;;;;;17.46;64.51;97376.59;4213746;28;20390;-59
2023/10/20 03:44:47;;;;;;;;;;;;;;;17.45;64.36;97378.41;4213769;28;20304;-59
2023/10/20 03:46:49;;;;;;;;;;;;;;;17.45;64.45;97369.59;4213863;28;19977;-58
2023/10/20 03:48:51;;;;;;;;;;;;;;;17.45;64.65;97369.59;4213613;28;19924;-58
2023/10/20 03:50:53;;;;;;;;;;;;;;;17.44;64.52;97363.47;4213625;28;19924;-58
2023/10/20 03:52:55;;;;;;;;;;;;;;;17.44;64.16;97371.47;4213946;28;19930;-59
2023/10/20 03:54:57;;;;;;;;;;;;;;;17.45;64.11;97385.56;4213744;28;19935;-58
2023/10/20 03:56:58;;;;;;;;;;;;;;;17.44;64.18;97391.88;4213774;28;19931;-59
2023/10/20 03:59:00;;;;;;;;;;;;;;;17.43;64.59;97393.72;4213749;28;19959;-58
2023/10/20 04:01:07;;;;;;;;;;;;;;;17.43;64.57;97403.53;4213786;28;20363;-58
2023/10/20 04:03:14;;;;;;;;;;;;;;;17.44;64.51;97400.69;4213602;28;20019;-58
2023/10/20 04:05:21;;;;;;;;;;;;;;;17.42;64.50;97418.63;4195098;28;19954;-58
2023/10/20 04:07:24;;;;;;;;;;;;;;;17.44;64.24;97437.03;4213539;28;19928;-58
2023/10/20 04:09:25;;;;;;;;;;;;;;;17.43;64.36;97438.06;4213734;28;19925;-59
2023/10/20 04:11:27;;;;;;;;;;;;;;;17.43;64.18;97435.41;4213571;28;20022;-58
2023/10/20 04:13:31;;;;;;;;;;;;;;;17.42;64.12;97434.56;4213442;28;20309;-58
2023/10/20 04:15:36;;;;;;;;;;;;;;;17.41;64.12;97430.25;4216573;28;19963;-58
2023/10/20 04:17:38;;;;;;;;;;;;;;;17.40;64.48;97426.78;4216696;28;20010;-59
2023/10/20 04:19:40;;;;;;;;;;;;;;;17.40;64.56;97437.41;4216894;28;19924;-58
2023/10/20 04:21:46;;;;;;;;;;;;;;;17.41;64.30;97440.88;4198402;28;19925;-58
2023/10/20 04:23:47;;;;;;;;;;;;;;;17.40;64.54;97439.25;4216810;28;20022;-58
2023/10/20 04:25:55;;;;;;;;;;;;;;;17.39;64.59;97434.94;4216858;28;20335;-58
2023/10/20 04:28:12;;;;;;;;;;;;;;;17.39;64.38;97443.72;4216618;28;20322;-58
2023/10/20 04:42:44;;;;;;;;;;;;;;;17.37;64.74;97452.88;4216558;28;19931;-58
2023/10/20 04:53:45;;;;;;;;;;;;;;;17.36;64.42;97486.59;4216342;28;20020;-58
2023/10/20 05:00:36;;;;;;;;;;;;;;;17.35;64.22;97508.84;4164386;28;19933;-58
2023/10/20 05:04:52;;;;;;;;;;;;;;;17.34;64.46;97507.19;4164007;28;19961;-58
2023/10/20 05:06:58;;;;;;;;;;;;;;;17.33;64.25;97508.19;4164341;28;19925;-57
2023/10/20 05:08:59;;;;;;;;;;;;;;;17.34;64.63;97515.16;4164460;28;19964;-57
2023/10/20 05:11:01;;;;;;;;;;;;;;;17.33;64.46;97513.50;4164317;28;19960;-57
2023/10/20 05:13:03;;;;;;;;;;;;;;;17.33;64.66;97508.19;4164435;28;20294;-58
2023/10/20 05:15:05;;;;;;;;;;;;;;;17.31;64.31;97499.56;4164235;28;19935;-58
2023/10/20 05:17:10;;;;;;;;;;;;;;;17.32;64.35;97508.38;4164084;28;19986;-58
2023/10/20 05:19:12;;;;;;;;;;;;;;;17.31;64.39;97504.06;4163778;28;19964;-58
2023/10/20 05:21:14;;;;;;;;;;;;;;;17.31;64.72;97509.38;4164096;28;19995;-58
2023/10/20 05:23:15;;;;;;;;;;;;;;;17.31;64.65;97498.75;4164200;28;20409;-58
2023/10/20 05:25:17;;;;;;;;;;;;;;;17.31;64.53;97496.09;4163994;28;19929;-58
2023/10/20 05:27:19;;;;;;;;;;;;;;;17.30;64.61;97489.94;4163356;28;20310;-58
2023/10/20 05:29:21;;;;;;;;;;;;;;;17.30;64.65;97484.63;4164033;28;19925;-58
2023/10/20 05:31:24;;;;;;;;;;;;;;;17.30;64.68;97489.13;4164076;28;20377;-58
2023/10/20 05:33:26;;;;;;;;;;;;;;;17.29;64.64;97476.84;4163607;28;19968;-58
2023/10/20 05:35:29;;;;;;;;;;;;;;;17.30;64.69;97486.47;4164011;28;19932;-58
2023/10/20 05:37:30;;;;;;;;;;;;;;;17.30;64.44;97483.81;4181062;28;20134;-58
2023/10/20 05:39:32;;;;;;;;;;;;;;;17.29;64.48;97476.84;4215565;28;20015;-58
2023/10/20 05:41:34;;;;;;;;;;;;;;;17.28;64.63;97469.88;4215589;28;19924;-58
2023/10/20 05:43:35;;;;;;;;;;;;;;;17.28;64.49;97468.06;4197660;28;19925;-58
2023/10/20 05:45:38;;;;;;;;;;;;;;;17.29;64.57;97468.88;4197590;28;19931;-58
2023/10/20 05:47:40;;;;;;;;;;;;;;;17.28;64.57;97459.25;4197168;28;19967;-57
2023/10/20 05:49:41;;;;;;;;;;;;;;;17.27;64.29;97466.41;4215567;28;19924;-58
2023/10/20 05:51:43;;;;;;;;;;;;;;;17.27;64.63;97468.22;4197764;28;20371;-58
2023/10/20 05:53:45;;;;;;;;;;;;;;;17.27;64.71;97468.22;4215303;28;20347;-59
2023/10/20 05:55:47;;;;;;;;;;;;;;;17.27;64.30;97471.72;4197395;28;19929;-58
2023/10/20 05:57:48;;;;;;;;;;;;;;;17.26;64.78;97467.41;4215479;28;19988;-58
2023/10/20 05:59:50;;;;;;;;;;;;;;;17.27;64.46;97465.56;4215439;28;19924;-57
2023/10/20 06:01:51;;;;;;;;;;;;;;;17.25;64.73;97476.34;4214773;28;19935;-58
2023/10/20 06:03:53;;;;;;;;;;;;;;;17.25;64.67;97473.72;4215244;28;19998;-58
2023/10/20 06:05:59;;;;;;;;;;;;;;;17.25;64.48;97481.66;4215108;28;19924;-58
2023/10/20 06:08:01;;;;;;;;;;;;;;;17.26;64.63;97485.16;4215026;28;20391;-58
2023/10/20 06:10:03;;;;;;;;;;;;;;;17.26;64.48;97485.16;4215274;28;20285;-58
2023/10/20 06:12:06;;;;;;;;;;;;;;;17.26;64.71;97483.31;4215081;28;20308;-58
2023/10/20 06:14:08;;;;;;;;;;;;;;;17.25;64.61;97489.63;4214928;28;20043;-58
2023/10/20 06:16:10;;;;;;;;;;;;;;;17.25;64.37;97486.97;4214786;28;19970;-58
2023/10/20 06:18:13;;;;;;;;;;;;;;;17.24;64.40;97472.88;4215022;28;19959;-58
2023/10/20 06:20:38;;;;;;;;;;;;;;;17.24;64.41;97466.72;4214895;28;19974;-58
2023/10/20 06:22:44;;;;;;;;;;;;;;;17.24;64.45;97474.69;4214673;28;20296;-57
2023/10/20 06:24:47;;;;;;;;;;;;;;;17.23;64.38;97487.16;4214586;28;19951;-57
2023/10/20 06:26:48;;;;;;;;;;;;;;;17.24;64.82;97493.28;4214777;28;20031;-57
2023/10/20 06:28:51;;;;;;;;;;;;;;;17.23;64.69;97489.81;4214704;28;19955;-57
2023/10/20 06:30:55;;;;;;;;;;;;;;;17.15;64.67;97476.59;4214607;28;19969;-57
2023/10/20 06:33:16;;;;;;;;;;;;;;;17.21;64.74;97489.16;4214528;28;20408;-56
2023/10/20 06:35:18;;;;;;;;;;;;;;;17.22;64.71;97493.47;4214664;28;19935;-57
2023/10/20 06:39:44;;;;;;;;;;;;;;;17.19;64.57;97480.56;4162781;28;19968;-57
2023/10/20 06:41:46;;;;;;;;;;;;;;;17.19;64.94;97477.06;4163006;28;19929;-57
2023/10/20 06:43:48;;;;;;;;;;;;;;;17.19;64.84;97474.41;4162574;28;19925;-58
2023/10/20 06:45:57;;;;;;;;;;;;;;;17.19;64.72;97477.91;4162448;28;19960;-57
2023/10/20 06:47:58;;;;;;;;;;;;;;;17.19;64.88;97477.91;4162468;28;20084;-57
2023/10/20 06:50:00;;;;;;;;;;;;;;;17.19;64.84;97474.41;4162859;28;19925;-57
2023/10/20 06:52:03;;;;;;;;;;;;;;;17.18;64.75;97467.44;4152487;28;19926;-57
2023/10/20 06:54:05;;;;;;;;;;;;;;;17.20;64.39;97473.41;4133487;28;19980;-57
2023/10/20 06:56:09;;;;;;;;;;;;;;;17.19;64.36;97483.22;4152708;28;20353;-57
2023/10/20 06:58:17;;;;;;;;;;;;;;;17.19;64.52;97490.34;4163594;28;19925;-57
2023/10/20 07:00:22;;;;;;;;;;;;;;;17.20;64.89;97487.50;4161634;28;19968;-57
2023/10/20 07:02:23;;;;;;;;;;;;;;;17.22;64.78;97497.97;4163802;28;19963;-57
2023/10/20 07:04:26;;;;;;;;;;;;;;;17.22;64.81;97503.28;4178777;28;19932;-57
2023/10/20 07:06:28;;;;;;;;;;;;;;;17.22;64.88;97508.59;4178603;28;20352;-57
2023/10/20 07:08:29;;;;;;;;;;;;;;;17.22;64.97;97511.25;4179098;28;20015;-57
2023/10/20 07:10:37;;;;;;;;;;;;;;;17.21;64.71;97515.72;4178835;28;19967;-56
2023/10/20 07:12:39;;;;;;;;;;;;;;;17.21;64.65;97514.91;4178764;28;19928;-57
2023/10/20 07:14:42;;;;;;;;;;;;;;;17.20;64.87;97510.59;4178299;28;19925;-57
2023/10/20 07:16:44;;;;;;;;;;;;;;;17.20;65.08;97515.91;4173439;28;20416;-57
2023/10/20 07:18:47;;;;;;;;;;;;;;;17.19;65.13;97512.44;4214134;28;20385;-57
2023/10/20 07:20:49;;;;;;;;;;;;;;;17.19;64.94;97507.13;4214142;28;19958;-57
2023/10/20 07:22:51;;;;;;;;;;;;;;;17.19;65.07;97506.28;4214007;28;19924;-59
2023/10/20 07:24:53;;;;;;;;;;;;;;;17.18;64.87;97513.44;4213703;28;20308;-58
2023/10/20 07:26:55;;;;;;;;;;;;;;;17.18;64.82;97517.91;4214011;28;20018;-57
2023/10/20 07:28:57;;;;;;;;;;;;;;;17.18;65.02;97510.78;4213496;28;20027;-57
2023/10/20 07:30:58;;;;;;;;;;;;;;;17.18;65.05;97509.94;4213970;28;19924;-57
2023/10/20 07:33:00;;;;;;;;;;;;;;;17.18;65.01;97509.94;4213938;28;20392;-57
2023/10/20 07:35:03;;;;;;;;;;;;;;;17.19;64.99;97506.28;4213675;28;20380;-57
2023/10/20 07:37:06;;;;;;;;;;;;;;;17.17;65.13;97500.31;4213737;28;19927;-58
2023/10/20 07:39:08;;;;;;;;;;;;;;;17.17;64.74;97516.25;4213746;28;20305;-57
2023/10/20 07:41:11;;;;;;;;;;;;;;;17.18;64.82;97517.91;4213754;28;19928;-57
2023/10/20 07:43:13;;;;;;;;;;;;;;;17.17;64.86;97511.78;4213317;28;19939;-58
2023/10/20 07:45:15;;;;;;;;;;;;;;;17.17;64.94;97527.72;4213677;28;19925;-58
2023/10/20 07:47:16;;;;;;;;;;;;;;;17.17;65.02;97533.03;4213345;28;19923;-57
2023/10/20 07:49:18;;;;;;;;;;;;;;;17.17;64.73;97540.16;4213065;28;19924;-57
2023/10/20 07:51:19;;;;;;;;;;;;;;;17.17;64.82;97548.09;4195828;28;20371;-59
2023/10/20 07:53:21;;;;;;;;;;;;;;;17.17;64.94;97546.31;4213686;28;20293;-59
2023/10/20 07:55:22;;;;;;;;;;;;;;;17.17;65.02;97546.31;4213486;28;20015;-59
2023/10/20 07:57:24;;;;;;;;;;;;;;;17.15;65.06;97556.25;4213328;28;19924;-59
2023/10/20 07:59:26;;;;;;;;;;;;;;;17.16;64.99;97547.28;4213653;28;20349;-59
2023/10/20 08:01:27;;;;;;;;;;;;;;;17.15;64.98;97547.47;4213819;28;19932;-59
2023/10/20 08:03:29;;;;;;;;;;;;;;;17.15;65.04;97560.75;4213374;28;19924;-59
2023/10/20 08:05:34;;;;;;;;;;;;;;;17.14;64.87;97557.25;4213518;28;19958;-57
2023/10/20 08:07:38;;;;;;;;;;;;;;;17.15;64.74;97545.63;4213516;28;20419;-57
2023/10/20 08:09:40;;;;;;;;;;;;;;;17.15;65.01;97536.84;4213466;28;20011;-57
2023/10/20 08:11:42;;;;;;;;;;;;;;;17.15;64.96;97548.28;4195661;28;20412;-60
2023/10/20 08:13:50;;;;;;;;;;;;;;;17.15;64.83;97556.25;4213177;28;19931;-59
2023/10/20 08:15:52;;;;;;;;;;;;;;;17.15;64.77;97566.06;4213347;28;19924;-59
2023/10/20 08:17:56;;;;;;;;;;;;;;;17.15;64.57;97566.88;4213328;28;20396;-59
2023/10/20 08:19:59;;;;;;;;;;;;;;;17.15;64.64;97561.56;4213607;28;19928;-57
2023/10/20 08:22:00;;;;;;;;;;;;;;;17.15;64.82;97566.88;4213404;28;19971;-59
2023/10/20 08:24:04;;;;;;;;;;;;;;;17.16;64.55;97562.41;4213187;28;19924;-59
2023/10/20 08:26:06;;;;;;;;;;;;;;;17.16;64.75;97573.84;4213685;28;19930;-59
2023/10/20 08:28:08;;;;;;;;;;;;;;;17.16;64.74;97584.47;4213186;28;20416;-57
2023/10/20 08:30:10;;;;;;;;;;;;;;;17.16;64.72;97583.66;4213303;28;19924;-59
2023/10/20 08:32:12;;;;;;;;;;;;;;;17.16;64.72;97579.16;4213494;28;19959;-60
2023/10/20 08:34:14;;;;;;;;;;;;;;;17.16;64.32;97578.34;4200819;28;19924;-59
2023/10/20 08:36:16;;;;;;;;;;;;;;;17.15;64.62;97566.06;4196474;28;20408;-59
2023/10/20 08:38:17;;;;;;;;;;;;;;;17.06;64.49;97558.13;4201788;28;19931;-59
2023/10/20 08:40:19;;;;;;;;;;;;;;;17.17;63.99;97580.81;4206257;28;20019;-58
2023/10/20 08:42:21;;;;;;;;;;;;;;;17.21;64.19;97581.31;4203727;28;19936;-58
2023/10/20 08:44:24;;;;;;;;;;;;;;;17.26;63.98;97580.78;4203994;28;19924;-59
2023/10/20 08:46:27;;;;;;;;;;;;;;;17.30;64.36;97579.41;4201618;28;19924;-59
2023/10/20 08:48:28;;;;;;;;;;;;;;;17.34;64.29;97575.41;4201271;28;19925;-59
2023/10/20 08:50:31;;;;;;;;;;;;;;;17.38;64.20;97577.53;4196408;28;20441;-59
2023/10/20 08:52:34;;;;;;;;;;;;;;;17.43;63.98;97586.81;4196483;28;19928;-59
2023/10/20 08:54:36;;;;;;;;;;;;;;;17.46;64.08;97581.13;4196457;28;20023;-59
2023/10/20 08:56:40;;;;;;;;;;;;;;;17.47;64.04;97582.81;4178341;28;20255;-58
2023/10/20 08:58:44;;;;;;;;;;;;;;;17.45;64.10;97582.13;4196456;28;19934;-58
2023/10/20 09:00:46;;;;;;;;;;;;;;;17.46;64.01;97586.44;4196577;28;19924;-59
2023/10/20 09:02:59;;;;;;;;;;;;;;;17.52;64.09;97593.72;4200208;28;19989;-58
2023/10/20 09:05:01;;;;;;;;;;;;;;;17.56;63.70;97579.09;4214794;28;19928;-59
2023/10/20 09:07:10;;;;;;;;;;;;;;;17.60;63.69;97582.22;4216002;28;20011;-59
2023/10/20 09:09:12;;;;;;;;;;;;;;;17.64;63.90;97580.84;4216065;28;19964;-59
2023/10/20 09:11:14;;;;;;;;;;;;;;;17.65;63.46;97591.31;4215522;28;19946;-58
2023/10/20 09:13:15;;;;;;;;;;;;;;;17.64;63.58;97592.31;4215832;28;19924;-59
2023/10/20 09:15:17;;;;;;;;;;;;;;;17.61;63.62;97586.53;4214202;28;20026;-60
2023/10/20 09:17:24;;;;;;;;;;;;;;;17.63;63.72;97595.16;4209070;28;19970;-59
2023/10/20 09:19:26;;;;;;;;;;;;;;;17.68;63.31;97595.44;4206491;28;20400;-59
2023/10/20 09:21:28;;;;;;;;;;;;;;;17.71;63.25;97595.91;4206825;28;20002;-58
2023/10/20 09:23:32;;;;;;;;;;;;;;;17.73;63.16;97598.41;4206613;28;19981;-59
2023/10/20 09:25:34;;;;;;;;;;;;;;;17.76;63.31;97599.88;4206198;28;19924;-59
2023/10/20 09:27:37;;;;;;;;;;;;;;;17.76;63.35;97607.84;4206320;28;19925;-61
2023/10/20 09:29:40;;;;;;;;;;;;;;;17.72;63.23;97605.53;4203768;28;19932;-59
2023/10/20 09:31:42;;;;;;;;;;;;;;;17.72;63.41;97604.72;4206281;28;19932;-62
2023/10/20 09:33:44;;;;;;;;;;;;;;;17.76;63.33;97605.19;4206267;28;19956;-61
2023/10/20 09:35:46;;;;;;;;;;;;;;;17.82;63.00;97604.47;4206415;28;19999;-61
2023/10/20 09:37:51;;;;;;;;;;;;;;;17.86;62.96;97603.13;4206289;28;19925;-61
2023/10/20 09:39:54;;;;;;;;;;;;;;;17.89;63.08;97600.09;4205791;28;20029;-61
2023/10/20 09:41:58;;;;;;;;;;;;;;;17.94;62.82;97605.72;4215308;28;19924;-61
2023/10/20 09:44:06;;;;;;;;;;;;;;;17.91;63.00;97598.09;4215416;28;19924;-61
2023/10/20 09:46:32;;;;;;;;;;;;;;;17.87;62.91;97610.94;4215235;28;19935;-63
2023/10/20 09:48:35;;;;;;;;;;;;;;;17.88;62.93;97603.78;4204635;28;19960;-62
2023/10/20 09:50:37;;;;;;;;;;;;;;;17.92;62.91;97615.69;4215448;28;19924;-62
2023/10/20 09:52:40;;;;;;;;;;;;;;;17.95;63.10;97615.38;4215153;28;19924;-61
2023/10/20 09:54:42;;;;;;;;;;;;;;;17.98;62.68;97615.03;4214784;28;19928;-61
2023/10/20 09:56:45;;;;;;;;;;;;;;;18.00;62.90;97615.66;4208700;28;20103;-61
2023/10/20 09:58:46;;;;;;;;;;;;;;;18.01;62.58;97621.81;4198438;28;19924;-61
2023/10/20 10:00:48;;;;;;;;;;;;;;;17.99;62.85;97626.47;4197634;28;19947;-61
2023/10/20 10:02:55;;;;;;;;;;;;;;;17.96;63.01;97633.00;4197607;28;19967;-61
2023/10/20 10:04:57;;;;;;;;;;;;;;;18.00;62.92;97631.63;4211260;28;19939;-61
2023/10/20 10:07:03;;;;;;;;;;;;;;;18.03;62.85;97631.28;4215233;28;20018;-62
2023/10/20 10:09:06;;;;;;;;;;;;;;;18.09;62.67;97642.19;4214578;28;19928;-62
2023/10/20 10:11:26;;;;;;;;;;;;;;;18.11;62.60;97641.00;4214886;28;19931;-62
2023/10/20 10:13:36;;;;;;;;;;;;;;;18.12;62.43;97642.66;4214358;28;20015;-62
2023/10/20 10:15:39;;;;;;;;;;;;;;;18.11;62.77;97637.53;4214662;28;19931;-62
2023/10/20 10:17:47;;;;;;;;;;;;;;;18.07;62.83;97644.19;4215085;28;19927;-62
2023/10/20 10:19:50;;;;;;;;;;;;;;;18.07;62.54;97637.06;4215068;28;20331;-61
2023/10/20 10:21:57;;;;;;;;;;;;;;;18.11;62.63;97637.53;4196839;28;19932;-62
2023/10/20 10:24:07;;;;;;;;;;;;;;;18.15;62.37;97636.16;4214215;28;19930;-62
2023/10/20 10:26:13;;;;;;;;;;;;;;;18.17;62.46;97642.13;4214363;28;19930;-62
2023/10/20 10:28:15;;;;;;;;;;;;;;;18.18;62.20;97644.59;4214952;28;20316;-62
2023/10/20 10:30:27;;;;;;;;;;;;;;;18.17;62.13;97640.28;4214767;28;20472;-63
2023/10/20 10:32:33;;;;;;;;;;;;;;;18.12;62.43;97647.97;4196601;28;19931;-63
2023/10/20 10:34:46;;;;;;;;;;;;;;;18.10;62.52;97646.50;4214706;28;19931;-62
2023/10/20 10:36:47;;;;;;;;;;;;;;;18.14;62.49;97653.13;4214507;28;20014;-61
2023/10/20 10:38:49;;;;;;;;;;;;;;;18.18;62.41;97649.09;4214598;28;19924;-62
2023/10/20 10:40:52;;;;;;;;;;;;;;;18.20;62.00;97652.41;4214578;28;19927;-62
2023/10/20 10:42:53;;;;;;;;;;;;;;;18.22;62.26;97653.06;4214661;28;19928;-62
2023/10/20 10:44:55;;;;;;;;;;;;;;;18.22;62.25;97653.06;4214209;28;19924;-62
2023/10/20 10:46:56;;;;;;;;;;;;;;;18.17;62.24;97653.59;4214553;28;19926;-62
2023/10/20 10:49:09;;;;;;;;;;;;;;;18.15;62.23;97657.44;4214077;28;19962;-62
2023/10/20 10:51:11;;;;;;;;;;;;;;;18.18;62.51;97657.09;4199602;28;19958;-62
2023/10/20 10:53:13;;;;;;;;;;;;;;;18.20;62.13;97655.91;4197093;28;19974;-60
2023/10/20 10:55:15;;;;;;;;;;;;;;;18.25;62.36;97655.38;4197384;28;20444;-60
2023/10/20 10:57:17;;;;;;;;;;;;;;;18.27;62.20;97658.66;4200222;28;19924;-58
2023/10/20 10:59:19;;;;;;;;;;;;;;;18.28;62.32;97657.66;4211972;28;20434;-57
2023/10/20 11:01:21;;;;;;;;;;;;;;;18.26;62.13;97662.31;4212701;28;19939;-57
2023/10/20 11:03:23;;;;;;;;;;;;;;;18.22;62.22;97665.53;4199142;28;19934;-58
2023/10/20 11:05:27;;;;;;;;;;;;;;;18.19;62.44;97672.88;4197220;28;19925;-58
2023/10/20 11:07:28;;;;;;;;;;;;;;;18.16;62.53;97667.88;4196571;28;19960;-57
2023/10/20 11:09:33;;;;;;;;;;;;;;;18.13;62.61;97662.94;4179286;28;20306;-58
2023/10/20 11:11:38;;;;;;;;;;;;;;;18.12;62.39;97661.28;4197232;28;19925;-58